createdAt,value
2019-05-12T00:02:23.767Z,59.30
2019-05-12T00:04:58.240Z,59.50
2019-05-12T00:07:30.322Z,58.70
2019-05-12T00:10:02.869Z,58.80
2019-05-12T00:12:35.129Z,58.80
2019-05-12T00:15:08.411Z,58.70
2019-05-12T00:17:40.784Z,58.80
2019-05-12T00:20:13.105Z,58.60
2019-05-12T00:22:49.160Z,58.60
2019-05-12T00:25:22.252Z,58.50
2019-05-12T00:27:54.539Z,58.50
2019-05-12T00:30:35.065Z,58.60
2019-05-12T00:33:09.278Z,58.50
2019-05-12T00:35:41.580Z,58.60
2019-05-12T00:38:13.921Z,58.40
2019-05-12T00:40:47.914Z,58.30
2019-05-12T00:43:20.449Z,58.10
2019-05-12T00:45:53.005Z,57.70
2019-05-12T00:48:25.233Z,57.90
2019-05-12T00:50:58.360Z,57.90
2019-05-12T00:53:39.795Z,57.80
2019-05-12T00:56:05.052Z,57.90
2019-05-12T00:58:38.235Z,57.60
2019-05-12T01:01:11.083Z,57.60
2019-05-12T01:03:44.116Z,57.80
2019-05-12T01:06:17.790Z,57.60
2019-05-12T01:08:50.068Z,57.60
2019-05-12T01:11:22.508Z,57.50
2019-05-12T01:13:54.916Z,57.40
2019-05-12T01:16:28.902Z,57.20
2019-05-12T01:19:01.048Z,57.30
2019-05-12T01:21:33.398Z,57.10
2019-05-12T01:24:08.315Z,57.20
2019-05-12T01:26:39.437Z,57.20
2019-05-12T01:29:11.677Z,57.30
2019-05-12T01:31:51.421Z,57.30
2019-05-12T01:34:23.708Z,57.40
2019-05-12T01:37:15.116Z,57.50
2019-05-12T01:39:49.102Z,57.60
2019-05-12T01:42:22.692Z,57.70
2019-05-12T01:44:54.905Z,57.40
2019-05-12T01:47:29.148Z,57.60
2019-05-12T01:50:01.636Z,57.80
2019-05-12T01:52:35.150Z,57.70
2019-05-12T01:55:08.373Z,57.50
2019-05-12T01:57:40.723Z,57.20
2019-05-12T02:00:13.705Z,57.30
2019-05-12T02:02:48.034Z,57.40
2019-05-12T02:05:20.069Z,57.50
2019-05-12T02:07:54.291Z,57.40
2019-05-12T02:10:28.618Z,57.20
2019-05-12T02:13:00.786Z,57.10
2019-05-12T02:15:33.084Z,57.00
2019-05-12T02:18:05.386Z,56.70
2019-05-12T02:20:38.146Z,56.70
2019-05-12T02:23:10.682Z,56.90
2019-05-12T02:25:42.996Z,56.90
2019-05-12T02:28:15.257Z,56.90
2019-05-12T02:30:50.286Z,57.00
2019-05-12T02:33:24.493Z,57.20
2019-05-12T02:35:55.817Z,57.20
2019-05-12T02:38:28.121Z,57.10
2019-05-12T02:41:00.356Z,57.00
2019-05-12T02:43:34.834Z,56.40
2019-05-12T02:46:07.017Z,56.30
2019-05-12T02:48:39.259Z,56.50
2019-05-12T02:51:15.511Z,56.50
2019-05-12T02:53:47.457Z,56.40
2019-05-12T02:56:25.562Z,56.30
2019-05-12T02:58:56.988Z,56.30
2019-05-12T03:01:29.688Z,56.10
2019-05-12T03:04:05.629Z,56.20
2019-05-12T03:06:40.567Z,56.10
2019-05-12T03:09:15.106Z,56.20
2019-05-12T03:11:46.742Z,56.30
2019-05-12T03:14:18.946Z,56.30
2019-05-12T03:16:53.928Z,56.20
2019-05-12T03:19:25.460Z,56.10
2019-05-12T03:21:57.716Z,56.00
2019-05-12T03:24:29.948Z,55.80
2019-05-12T03:27:04.388Z,55.80
2019-05-12T03:29:36.330Z,55.80
2019-05-12T03:32:08.963Z,55.70
2019-05-12T03:34:46.871Z,55.90
2019-05-12T03:37:17.975Z,56.00
2019-05-12T03:39:49.512Z,55.90
2019-05-12T03:42:24.841Z,55.90
2019-05-12T03:44:55.697Z,56.00
2019-05-12T03:47:27.939Z,56.30
2019-05-12T03:50:00.328Z,56.30
2019-05-12T03:52:34.978Z,56.50
2019-05-12T03:55:25.928Z,56.50
2019-05-12T03:57:44.839Z,56.50
2019-05-12T04:00:16.141Z,56.50
2019-05-12T04:02:48.533Z,56.40
2019-05-12T04:05:24.155Z,56.50
2019-05-12T04:07:55.862Z,56.50
2019-05-12T04:10:28.151Z,56.30
2019-05-12T04:13:00.519Z,56.20
2019-05-12T04:15:34.610Z,56.30
2019-05-12T04:18:06.769Z,56.20
2019-05-12T04:20:39.008Z,56.00
2019-05-12T04:23:11.275Z,56.00
2019-05-12T04:25:52.841Z,56.00
2019-05-12T04:28:17.600Z,56.10
2019-05-12T04:30:50.009Z,56.00
2019-05-12T04:33:25.398Z,55.80
2019-05-12T04:35:56.255Z,55.80
2019-05-12T04:38:28.730Z,55.90
2019-05-12T04:41:01.003Z,55.90
2019-05-12T04:43:35.349Z,55.80
2019-05-12T04:46:14.550Z,56.00
2019-05-12T04:48:46.352Z,55.80
2019-05-12T04:51:18.753Z,55.80
2019-05-12T04:53:51.011Z,55.90
2019-05-12T04:56:24.974Z,55.70
2019-05-12T04:58:57.493Z,55.90
2019-05-12T05:01:29.668Z,55.70
2019-05-12T05:04:05.018Z,55.70
2019-05-12T05:06:36.214Z,55.90
2019-05-12T05:09:10.411Z,55.60
2019-05-12T05:11:45.135Z,55.70
2019-05-12T05:14:16.554Z,55.80
2019-05-12T05:16:48.829Z,55.80
2019-05-12T05:19:21.162Z,55.80
2019-05-12T05:21:54.167Z,55.90
2019-05-12T05:24:26.575Z,55.70
2019-05-12T05:26:58.948Z,55.60
2019-05-12T05:29:33.160Z,55.80
2019-05-12T05:32:05.310Z,55.90
2019-05-12T05:34:37.577Z,56.10
2019-05-12T05:37:09.881Z,56.10
2019-05-12T05:39:47.550Z,56.00
2019-05-12T05:42:16.241Z,55.90
2019-05-12T05:44:48.570Z,56.10
2019-05-12T05:47:25.468Z,56.30
2019-05-12T05:49:54.973Z,56.20
2019-05-12T05:52:33.389Z,56.20
2019-05-12T05:55:05.733Z,56.30
2019-05-12T05:57:37.396Z,56.40
2019-05-12T06:00:17.577Z,56.60
2019-05-12T06:02:44.394Z,56.70
2019-05-12T06:05:20.006Z,56.90
2019-05-12T06:07:53.431Z,57.10
2019-05-12T06:10:34.728Z,57.20
2019-05-12T06:12:59.724Z,57.30
2019-05-12T06:15:35.637Z,57.30
2019-05-12T06:18:06.713Z,57.40
2019-05-12T06:20:38.988Z,57.60
2019-05-12T06:23:11.394Z,57.60
2019-05-12T06:25:49.398Z,57.70
2019-05-12T06:28:17.673Z,57.80
2019-05-12T06:30:50.426Z,57.90
2019-05-12T06:33:31.281Z,57.80
2019-05-12T06:35:57.237Z,57.70
2019-05-12T06:38:31.054Z,57.80
2019-05-12T06:41:03.657Z,58.00
2019-05-12T06:43:39.574Z,57.90
2019-05-12T06:46:11.756Z,57.90
2019-05-12T06:48:45.604Z,57.90
2019-05-12T06:51:23.039Z,57.90
2019-05-12T06:53:53.447Z,58.00
2019-05-12T06:56:25.983Z,58.00
2019-05-12T06:59:01.028Z,58.00
2019-05-12T07:01:34.465Z,58.10
2019-05-12T07:04:10.088Z,58.20
2019-05-12T07:06:44.165Z,58.30
2019-05-12T07:09:25.131Z,58.30
2019-05-12T07:11:58.780Z,58.40
2019-05-12T07:14:27.163Z,58.50
2019-05-12T07:17:06.229Z,58.60
2019-05-12T07:19:39.760Z,58.60
2019-05-12T07:22:19.971Z,58.70
2019-05-12T07:24:50.015Z,58.70
2019-05-12T07:27:35.273Z,58.70
2019-05-12T07:29:54.818Z,58.70
2019-05-12T07:32:27.546Z,58.90
2019-05-12T07:34:59.831Z,59.00
2019-05-12T07:37:37.564Z,59.00
2019-05-12T07:40:10.502Z,58.80
2019-05-12T07:42:43.918Z,58.80
2019-05-12T07:45:22.201Z,58.90
2019-05-12T07:47:50.810Z,58.60
2019-05-12T07:50:27.018Z,58.10
2019-05-12T07:52:57.221Z,57.80
2019-05-12T07:55:29.476Z,57.60
2019-05-12T07:58:09.968Z,57.30
2019-05-12T08:00:36.469Z,57.30
2019-05-12T08:03:18.148Z,57.30
2019-05-12T08:05:43.896Z,57.30
2019-05-12T08:08:16.907Z,57.30
2019-05-12T08:10:51.370Z,57.30
2019-05-12T08:13:23.882Z,56.80
2019-05-12T08:15:56.524Z,56.50
2019-05-12T08:18:36.720Z,56.10
2019-05-12T08:21:03.941Z,56.10
2019-05-12T08:23:38.034Z,55.70
2019-05-12T08:26:17.742Z,55.70
2019-05-12T08:28:44.504Z,55.60
2019-05-12T08:31:17.074Z,55.40
2019-05-12T08:33:49.344Z,55.40
2019-05-12T08:36:23.600Z,55.60
2019-05-12T08:38:56.766Z,55.00
2019-05-12T08:41:29.152Z,54.40
2019-05-12T08:44:01.494Z,53.80
2019-05-12T08:46:34.328Z,53.10
2019-05-12T08:49:07.271Z,53.90
2019-05-12T08:51:39.530Z,53.10
2019-05-12T08:54:14.070Z,53.40
2019-05-12T08:56:45.909Z,53.60
2019-05-12T08:59:24.220Z,53.60
2019-05-12T09:01:54.016Z,53.70
2019-05-12T09:04:26.946Z,53.80
2019-05-12T09:06:59.954Z,53.60
2019-05-12T09:09:33.726Z,53.80
2019-05-12T09:12:06.847Z,53.70
2019-05-12T09:14:46.124Z,53.40
2019-05-12T09:17:16.961Z,53.30
2019-05-12T09:19:49.332Z,53.20
2019-05-12T09:22:23.996Z,53.70
2019-05-12T09:24:58.377Z,52.80
2019-05-12T09:27:33.484Z,53.00
2019-05-12T09:30:09.612Z,52.40
2019-05-12T09:32:48.623Z,52.70
2019-05-12T09:35:14.522Z,52.90
2019-05-12T09:37:47.125Z,52.60
2019-05-12T09:40:26.045Z,52.50
2019-05-12T09:43:00.376Z,52.30
2019-05-12T09:45:33.404Z,52.20
2019-05-12T09:48:09.121Z,51.80
2019-05-12T09:50:39.693Z,51.70
2019-05-12T09:53:14.186Z,51.60
2019-05-12T09:55:46.125Z,51.40
2019-05-12T09:58:23.295Z,50.90
2019-05-12T10:00:54.296Z,50.80
2019-05-12T10:03:30.752Z,50.20
2019-05-12T10:06:00.846Z,49.40
2019-05-12T10:08:35.587Z,49.20
2019-05-12T10:11:10.299Z,48.00
2019-05-12T10:13:41.051Z,48.70
2019-05-12T10:16:13.526Z,48.20
2019-05-12T10:18:51.288Z,48.80
2019-05-12T10:21:19.813Z,49.00
2019-05-12T10:26:19.018Z,48.80
2019-05-12T10:28:53.659Z,47.20
2019-05-12T10:31:29.744Z,47.20
2019-05-12T10:34:16.956Z,47.10
2019-05-12T10:36:49.911Z,47.20
2019-05-12T10:39:24.404Z,47.00
2019-05-12T10:41:57.010Z,46.70
2019-05-12T10:44:36.351Z,47.30
2019-05-12T10:47:04.849Z,46.80
2019-05-12T10:49:37.073Z,45.60
2019-05-12T10:52:09.348Z,46.00
2019-05-12T10:54:43.459Z,45.90
2019-05-12T10:57:15.865Z,43.80
2019-05-12T10:59:48.739Z,44.20
2019-05-12T11:02:26.406Z,45.00
2019-05-12T11:04:55.326Z,45.10
2019-05-12T11:07:29.928Z,44.80
2019-05-12T11:10:13.189Z,44.40
2019-05-12T11:12:36.265Z,44.00
2019-05-12T11:15:13.418Z,44.40
2019-05-12T11:18:02.586Z,43.90
2019-05-12T11:20:34.951Z,44.70
2019-05-12T11:23:07.464Z,44.40
2019-05-12T11:25:39.681Z,43.10
2019-05-12T11:28:14.032Z,43.60
2019-05-12T11:30:46.476Z,42.70
2019-05-12T11:33:19.122Z,42.40
2019-05-12T11:35:53.913Z,41.90
2019-05-12T11:38:26.124Z,42.30
2019-05-12T11:40:58.401Z,42.90
2019-05-12T11:43:30.677Z,42.90
2019-05-12T11:46:03.061Z,43.30
2019-05-12T11:48:40.197Z,42.40
2019-05-12T11:51:09.349Z,42.50
2019-05-12T11:53:41.521Z,43.00
2019-05-12T11:56:14.423Z,40.00
2019-05-12T11:58:51.361Z,40.30
2019-05-12T12:01:24.282Z,41.00
2019-05-12T12:03:56.521Z,41.30
2019-05-12T12:06:28.621Z,40.70
2019-05-12T12:09:00.851Z,41.20
2019-05-12T12:11:34.250Z,40.60
2019-05-12T12:14:10.461Z,38.70
2019-05-12T12:16:49.577Z,39.60
2019-05-12T12:19:16.169Z,40.10
2019-05-12T12:21:50.166Z,39.60
2019-05-12T12:24:29.769Z,40.20
2019-05-12T12:26:56.601Z,40.90
2019-05-12T12:29:29.381Z,40.20
2019-05-12T12:32:01.878Z,40.10
2019-05-12T12:34:34.255Z,39.10
2019-05-12T12:37:06.779Z,36.70
2019-05-12T12:39:39.199Z,38.80
2019-05-12T12:42:13.869Z,38.80
2019-05-12T12:44:46.041Z,37.70
2019-05-12T12:47:18.341Z,38.60
2019-05-12T12:49:50.885Z,37.70
2019-05-12T12:52:24.384Z,37.60
2019-05-12T12:55:02.958Z,37.00
2019-05-12T12:57:33.561Z,37.10
2019-05-12T13:00:06.274Z,36.00
2019-05-12T13:02:44.365Z,36.00
2019-05-12T13:05:13.714Z,35.30
2019-05-12T13:07:46.002Z,35.60
2019-05-12T13:10:24.792Z,36.00
2019-05-12T13:13:00.916Z,36.00
2019-05-12T13:15:34.022Z,36.00
2019-05-12T13:18:09.041Z,35.70
2019-05-12T13:20:45.810Z,35.20
2019-05-12T13:23:18.473Z,33.90
2019-05-12T13:25:52.495Z,33.70
2019-05-12T13:28:25.995Z,33.80
2019-05-12T13:31:08.032Z,33.90
2019-05-12T13:33:33.841Z,33.70
2019-05-12T13:36:07.947Z,33.90
2019-05-12T13:38:44.423Z,33.90
2019-05-12T13:41:19.929Z,33.10
2019-05-12T13:43:56.123Z,33.10
2019-05-12T13:46:27.238Z,31.40
2019-05-12T13:49:03.196Z,31.30
2019-05-12T13:51:35.927Z,32.10
2019-05-12T13:54:08.360Z,31.90
2019-05-12T13:56:40.580Z,30.40
2019-05-12T13:59:20.815Z,31.10
2019-05-12T14:01:46.796Z,31.50
2019-05-12T14:04:27.178Z,32.10
2019-05-12T14:06:56.326Z,31.70
2019-05-12T14:09:28.629Z,30.60
2019-05-12T14:12:04.221Z,31.70
2019-05-12T14:14:35.794Z,31.90
2019-05-12T14:17:08.105Z,30.20
2019-05-12T14:19:40.330Z,31.40
2019-05-12T14:22:21.025Z,30.80
2019-05-12T14:24:47.072Z,31.20
2019-05-12T14:27:24.303Z,31.60
2019-05-12T14:29:53.661Z,31.00
2019-05-12T14:32:26.664Z,31.50
2019-05-12T14:35:00.670Z,30.60
2019-05-12T14:37:33.627Z,31.30
2019-05-12T14:40:06.366Z,31.20
2019-05-12T14:42:39.911Z,31.50
2019-05-12T14:45:13.828Z,31.80
2019-05-12T14:47:46.678Z,31.70
2019-05-12T14:50:18.909Z,31.70
2019-05-12T14:52:57.818Z,30.70
2019-05-12T14:55:25.509Z,31.30
2019-05-12T14:57:57.793Z,31.70
2019-05-12T15:00:30.091Z,31.70
2019-05-12T15:03:05.596Z,31.20
2019-05-12T15:05:36.174Z,31.80
2019-05-12T15:08:08.346Z,31.40
2019-05-12T15:10:40.549Z,31.20
2019-05-12T15:13:13.893Z,32.00
2019-05-12T15:15:50.051Z,31.90
2019-05-12T15:18:20.305Z,32.70
2019-05-12T15:20:54.479Z,32.20
2019-05-12T15:23:32.342Z,32.30
2019-05-12T15:26:01.005Z,31.70
2019-05-12T15:28:33.811Z,32.30
2019-05-12T15:31:06.210Z,32.30
2019-05-12T15:33:38.691Z,32.10
2019-05-12T15:36:10.990Z,32.20
2019-05-12T15:38:43.961Z,33.00
2019-05-12T15:41:19.974Z,32.00
2019-05-12T15:43:52.913Z,32.00
2019-05-12T15:46:24.578Z,31.60
2019-05-12T15:48:56.904Z,31.90
2019-05-12T15:51:29.199Z,32.00
2019-05-12T15:54:06.559Z,32.00
2019-05-12T15:56:35.437Z,31.40
2019-05-12T15:59:07.825Z,30.60
2019-05-12T16:01:40.207Z,31.10
2019-05-12T16:04:15.225Z,31.50
2019-05-12T16:06:53.359Z,31.30
2019-05-12T16:09:20.493Z,31.80
2019-05-12T16:11:52.836Z,31.60
2019-05-12T16:14:25.152Z,31.50
2019-05-12T16:16:57.340Z,31.70
2019-05-12T16:19:29.645Z,31.80
2019-05-12T16:22:03.643Z,31.80
2019-05-12T16:24:36.016Z,31.70
2019-05-12T16:27:08.469Z,31.70
2019-05-12T16:29:45.384Z,31.80
2019-05-12T16:32:26.352Z,31.70
2019-05-12T16:34:49.529Z,31.60
2019-05-12T16:37:25.161Z,31.60
2019-05-12T16:39:56.169Z,31.90
2019-05-12T16:42:28.432Z,32.10
2019-05-12T16:45:06.053Z,32.00
2019-05-12T16:47:35.755Z,31.90
2019-05-12T16:50:15.075Z,31.60
2019-05-12T16:52:45.043Z,31.60
2019-05-12T16:55:16.483Z,31.80
2019-05-12T16:57:52.875Z,31.60
2019-05-12T17:00:24.433Z,31.80
2019-05-12T17:02:58.018Z,32.10
2019-05-12T17:05:30.488Z,32.30
2019-05-12T17:08:04.275Z,32.40
2019-05-12T17:10:37.233Z,31.80
2019-05-12T17:13:13.459Z,32.00
2019-05-12T17:15:48.753Z,32.20
2019-05-12T17:18:24.033Z,32.40
2019-05-12T17:20:54.845Z,32.60
2019-05-12T17:23:27.093Z,32.20
2019-05-12T17:25:59.608Z,32.40
2019-05-12T17:28:34.171Z,32.50
2019-05-12T17:31:08.945Z,32.30
2019-05-12T17:33:41.608Z,32.50
2019-05-12T17:36:17.718Z,32.90
2019-05-12T17:38:51.108Z,32.70
2019-05-12T17:41:23.639Z,32.80
2019-05-12T17:44:01.197Z,32.90
2019-05-12T17:46:32.298Z,32.90
2019-05-12T17:49:05.127Z,32.50
2019-05-12T17:51:37.818Z,32.90
2019-05-12T17:54:13.352Z,33.30
2019-05-12T17:56:44.756Z,33.20
2019-05-12T17:59:27.634Z,33.20
2019-05-12T18:01:53.742Z,33.20
2019-05-12T18:04:30.546Z,33.30
2019-05-12T18:07:12.837Z,33.40
2019-05-12T18:09:38.944Z,33.50
2019-05-12T18:12:13.664Z,33.90
2019-05-12T18:14:51.762Z,34.00
2019-05-12T18:17:24.740Z,34.10
2019-05-12T18:20:00.842Z,34.10
2019-05-12T18:22:33.952Z,34.10
2019-05-12T18:25:09.124Z,34.30
2019-05-12T18:27:50.555Z,34.20
2019-05-12T18:30:23.936Z,34.20
2019-05-12T18:33:04.573Z,34.10
2019-05-12T18:35:30.395Z,34.10
2019-05-12T18:38:07.804Z,34.20
2019-05-12T18:40:46.348Z,34.30
2019-05-12T18:43:18.903Z,34.30
2019-05-12T18:45:57.182Z,34.50
2019-05-12T18:48:26.821Z,34.60
2019-05-12T18:51:05.023Z,34.50
2019-05-12T18:53:34.961Z,34.60
2019-05-12T18:56:10.173Z,34.70
2019-05-12T18:58:44.401Z,34.70
2019-05-12T19:01:16.740Z,34.50
2019-05-12T19:03:51.187Z,34.50
2019-05-12T19:06:23.631Z,34.80
2019-05-12T19:08:56.219Z,34.70
2019-05-12T19:11:40.786Z,34.80
2019-05-12T19:14:04.336Z,34.90
2019-05-12T19:16:39.618Z,35.00
2019-05-12T19:19:16.422Z,35.10
2019-05-12T19:21:47.202Z,35.20
2019-05-12T19:24:21.357Z,35.70
2019-05-12T19:26:54.255Z,35.20
2019-05-12T19:29:29.738Z,35.40
2019-05-12T19:32:04.340Z,35.50
2019-05-12T19:34:37.556Z,35.60
2019-05-12T19:37:11.077Z,35.60
2019-05-12T19:39:44.545Z,35.70
2019-05-12T19:42:20.441Z,35.90
2019-05-12T19:44:56.625Z,35.80
2019-05-12T19:47:33.591Z,36.00
2019-05-12T19:50:06.998Z,35.90
2019-05-12T19:52:36.573Z,36.00
2019-05-12T19:55:09.049Z,36.20
2019-05-12T19:57:43.817Z,36.10
2019-05-12T20:00:16.026Z,36.20
2019-05-12T20:02:48.537Z,36.40
2019-05-12T20:05:20.937Z,36.40
2019-05-12T20:07:53.840Z,36.40
2019-05-12T20:10:26.542Z,36.40
2019-05-12T20:13:00.247Z,36.50
2019-05-12T20:15:39.712Z,36.60
2019-05-12T20:18:09.775Z,36.50
2019-05-12T20:20:44.778Z,37.00
2019-05-12T20:23:17.401Z,36.70
2019-05-12T20:25:49.809Z,36.90
2019-05-12T20:28:24.191Z,36.90
2019-05-12T20:31:01.073Z,37.00
2019-05-12T20:33:30.632Z,37.00
2019-05-12T20:36:04.393Z,37.00
2019-05-12T20:38:38.759Z,37.10
2019-05-12T20:41:20.228Z,37.00
2019-05-12T20:43:49.953Z,37.00
2019-05-12T20:46:25.870Z,37.30
2019-05-12T20:49:01.169Z,37.30
2019-05-12T20:51:30.758Z,37.40
2019-05-12T20:54:07.540Z,37.40
2019-05-12T20:56:39.116Z,37.60
2019-05-12T20:59:13.742Z,37.70
2019-05-12T21:01:45.921Z,37.80
2019-05-12T21:04:22.201Z,38.00
2019-05-12T21:06:56.522Z,38.20
2019-05-12T21:09:28.981Z,38.50
2019-05-12T21:12:01.297Z,38.60
2019-05-12T21:14:36.259Z,38.70
2019-05-12T21:17:11.471Z,38.80
2019-05-12T21:19:55.770Z,38.90
2019-05-12T21:22:18.398Z,39.40
2019-05-12T21:24:53.243Z,39.20
2019-05-12T21:27:25.221Z,39.50
2019-05-12T21:30:00.544Z,39.50
2019-05-12T21:32:33.940Z,39.60
2019-05-12T21:35:18.424Z,39.80
2019-05-12T21:37:45.539Z,39.90
2019-05-12T21:40:15.849Z,40.10
2019-05-12T21:42:48.127Z,40.20
2019-05-12T21:45:25.465Z,40.30
2019-05-12T21:47:56.595Z,40.40
2019-05-12T21:50:32.396Z,40.40
2019-05-12T21:53:04.305Z,40.60
2019-05-12T21:55:37.230Z,41.00
2019-05-12T21:58:12.015Z,41.40
2019-05-12T22:00:50.410Z,41.20
2019-05-12T22:03:24.385Z,41.50
2019-05-12T22:05:56.618Z,41.50
2019-05-12T22:08:30.098Z,41.40
2019-05-12T22:11:09.572Z,41.40
2019-05-12T22:13:37.412Z,41.70
2019-05-12T22:16:09.668Z,41.80
2019-05-12T22:18:43.754Z,41.70
2019-05-12T22:21:19.245Z,41.70
2019-05-12T22:23:54.259Z,41.90
2019-05-12T22:26:30.698Z,41.90
2019-05-12T22:29:00.646Z,42.60
2019-05-12T22:31:33.379Z,42.30
2019-05-12T22:34:05.650Z,42.20
2019-05-12T22:36:37.916Z,42.40
2019-05-12T22:39:10.176Z,42.60
2019-05-12T22:41:43.968Z,42.70
2019-05-12T22:44:20.915Z,42.80
2019-05-12T22:46:50.156Z,43.00
2019-05-12T22:49:22.411Z,43.10
2019-05-12T22:52:02.833Z,43.30
2019-05-12T22:54:29.868Z,43.30
2019-05-12T22:57:04.114Z,43.20
2019-05-12T22:59:40.318Z,43.40
2019-05-12T23:02:15.966Z,43.40
2019-05-12T23:04:46.489Z,44.00
2019-05-12T23:07:24.175Z,43.40
2019-05-12T23:09:53.809Z,43.60
2019-05-12T23:12:27.432Z,43.80
2019-05-12T23:15:02.977Z,43.70
2019-05-12T23:17:39.043Z,43.80
2019-05-12T23:20:08.978Z,44.10
2019-05-12T23:22:43.643Z,44.20
2019-05-12T23:25:21.489Z,44.30
2019-05-12T23:27:54.275Z,44.50
2019-05-12T23:30:26.769Z,44.70
2019-05-12T23:32:59.050Z,44.90
2019-05-12T23:35:37.234Z,44.70
2019-05-12T23:38:10.617Z,44.60
2019-05-12T23:40:40.101Z,44.70
2019-05-12T23:43:14.421Z,44.70
2019-05-12T23:45:46.373Z,44.80
2019-05-12T23:48:18.529Z,45.00
2019-05-12T23:50:50.888Z,45.30
2019-05-12T23:53:24.289Z,45.40
2019-05-12T23:55:56.792Z,45.60
2019-05-12T23:58:29.833Z,45.70
